Terminal Aerodrome Forecast
Issued by NWS Melbourne, FL

Home | Current Version | Previous Version | Text Only | Print | Product List | Glossary On
Versions: 1 2 3 4 5 6 7 8 9 10 11 12 13 14
000
FTUS42 KMLB 171736
TAFDAB
TAF
KDAB 171736Z 1718/1818 04010KT P6SM FEW040
     FM180000 VRB04KT P6SM SKC
     FM181500 15007KT P6SM SCT035=

USA.gov is the U.S. government's official web portal to all federal, state and local government web resources and services.